Time;durP1;ratioP1;P1;durP2;ratioP2;P2;SDS_P1;SDS_P2;PMS_P1;PMS_P2;Temp;Humidity;BMP_temperature;BMP_pressure;BME280_temperature;BME280_humidity;BME280_pressure;Samples;Min_cycle;Max_cycle;Signal;HPM_P1;HPM_P2
2021/12/31 00:00:47;;;;;;;10.77;2.90;;;13.10;99.90;;;;;;5128290;27;20033;-67
2021/12/31 00:03:16;;;;;;;11.32;2.85;;;13.00;99.90;;;;;;5109828;28;20035;-67
2021/12/31 00:05:42;;;;;;;9.73;2.50;;;13.00;99.90;;;;;;5109584;28;20487;-67
2021/12/31 00:08:08;;;;;;;8.65;2.53;;;13.00;99.90;;;;;;5125763;28;20043;-67
2021/12/31 00:10:34;;;;;;;12.02;3.15;;;13.00;99.90;;;;;;5126129;28;20403;-67
2021/12/31 00:13:00;;;;;;;12.48;3.28;;;13.10;99.90;;;;;;5128083;28;20044;-67
2021/12/31 00:15:26;;;;;;;11.52;2.55;;;13.20;99.90;;;;;;5092278;28;20078;-67
2021/12/31 00:17:52;;;;;;;12.10;3.35;;;13.10;99.90;;;;;;5128609;28;20035;-67
2021/12/31 00:20:22;;;;;;;9.00;2.42;;;13.10;99.90;;;;;;5129092;27;21362;-67
2021/12/31 00:25:34;;;;;;;10.38;2.97;;;13.20;99.90;;;;;;5113369;28;20173;-67
2021/12/31 00:28:00;;;;;;;9.95;2.72;;;13.00;99.90;;;;;;5123877;28;20096;-67
2021/12/31 00:30:26;;;;;;;13.27;2.80;;;13.00;99.90;;;;;;5127489;28;20040;-67
2021/12/31 00:32:51;;;;;;;13.18;2.95;;;13.00;99.90;;;;;;5109241;28;20055;-67
2021/12/31 00:35:18;;;;;;;10.60;2.80;;;13.00;99.90;;;;;;5128013;28;20036;-67
2021/12/31 00:37:44;;;;;;;8.85;2.95;;;13.00;99.90;;;;;;5128475;28;20055;-67
2021/12/31 00:40:12;;;;;;;11.15;2.90;;;13.00;99.90;;;;;;5127361;28;20061;-66
2021/12/31 00:42:38;;;;;;;10.38;2.70;;;13.10;99.90;;;;;;5109278;28;20036;-66
2021/12/31 00:45:06;;;;;;;11.52;2.70;;;13.00;99.90;;;;;;5109170;28;20198;-67
2021/12/31 00:47:32;;;;;;;12.70;2.85;;;13.00;99.90;;;;;;5107439;28;20052;-66
2021/12/31 00:49:58;;;;;;;14.57;3.03;;;13.00;99.90;;;;;;5126035;28;20089;-67
2021/12/31 00:52:24;;;;;;;11.07;2.65;;;13.00;99.90;;;;;;5108864;28;20035;-67
2021/12/31 00:54:51;;;;;;;9.20;2.55;;;13.10;99.90;;;;;;5127673;28;20044;-67
2021/12/31 00:57:16;;;;;;;13.55;3.40;;;13.10;99.90;;;;;;5126931;28;20070;-66
2021/12/31 00:59:42;;;;;;;7.88;2.55;;;13.10;99.90;;;;;;5108346;28;20043;-67
2021/12/31 01:02:11;;;;;;;12.63;2.85;;;13.20;99.90;;;;;;5127509;28;20039;-66
2021/12/31 01:04:37;;;;;;;11.18;2.60;;;13.10;99.90;;;;;;5106894;28;20043;-66
2021/12/31 01:07:03;;;;;;;10.27;3.08;;;13.10;99.90;;;;;;5126506;28;20071;-66
2021/12/31 01:09:30;;;;;;;10.57;3.28;;;13.10;99.90;;;;;;5108207;28;20058;-67
2021/12/31 01:11:57;;;;;;;7.93;2.22;;;13.10;99.90;;;;;;5123999;28;20044;-67
2021/12/31 01:16:56;;;;;;;9.80;2.65;;;13.10;99.90;;;;;;5108359;28;20051;-67
2021/12/31 01:21:48;;;;;;;12.65;3.42;;;13.10;99.90;;;;;;5107954;28;20052;-66
2021/12/31 01:24:14;;;;;;;7.15;2.92;;;13.10;99.90;;;;;;5126481;28;20295;-66
2021/12/31 01:26:39;;;;;;;11.70;3.88;;;13.20;99.90;;;;;;5108545;28;20039;-66
2021/12/31 01:29:05;;;;;;;12.85;3.60;;;13.10;99.90;;;;;;5122102;28;20073;-66
2021/12/31 01:31:33;;;;;;;15.00;3.40;;;13.10;99.90;;;;;;5109053;28;20062;-66
2021/12/31 01:33:59;;;;;;;15.45;3.55;;;13.10;99.90;;;;;;5107554;28;20055;-66
2021/12/31 01:36:25;;;;;;;16.77;4.30;;;13.10;99.90;;;;;;5126283;28;20057;-66
2021/12/31 01:38:50;;;;;;;9.35;3.78;;;13.10;99.90;;;;;;5114642;27;20122;-66
2021/12/31 01:41:16;;;;;;;12.15;3.53;;;12.90;99.90;;;;;;5127426;28;20035;-66
2021/12/31 01:43:42;;;;;;;9.18;3.67;;;13.00;99.90;;;;;;5112145;28;20043;-66
2021/12/31 01:46:11;;;;;;;12.40;3.50;;;13.10;99.90;;;;;;5126141;28;20115;-66
2021/12/31 01:51:22;;;;;;;12.95;3.72;;;13.10;99.90;;;;;;5107914;28;20055;-66
2021/12/31 01:53:48;;;;;;;10.45;2.95;;;13.00;99.90;;;;;;5112649;27;20042;-68
2021/12/31 01:56:15;;;;;;;14.13;2.95;;;13.00;99.90;;;;;;5126013;28;20458;-66
2021/12/31 01:58:42;;;;;;;10.10;3.22;;;13.10;99.90;;;;;;5107155;28;20497;-66
2021/12/31 02:01:10;;;;;;;12.30;3.03;;;13.10;99.90;;;;;;5126081;28;20054;-66
2021/12/31 02:03:38;;;;;;;14.75;3.83;;;13.10;99.90;;;;;;5111525;28;20039;-66
2021/12/31 02:06:04;;;;;;;11.98;3.22;;;13.10;99.90;;;;;;5125579;28;20504;-66
2021/12/31 02:08:31;;;;;;;12.88;3.13;;;13.10;99.90;;;;;;5107253;28;20047;-66
2021/12/31 02:10:58;;;;;;;10.98;3.17;;;13.20;99.90;;;;;;5125729;28;20429;-66
2021/12/31 02:13:25;;;;;;;11.13;3.28;;;13.30;99.90;;;;;;5107475;28;20052;-66
2021/12/31 02:15:52;;;;;;;12.75;3.50;;;13.20;99.90;;;;;;5125437;28;20095;-66
2021/12/31 02:18:18;;;;;;;11.90;3.80;;;13.20;99.90;;;;;;5106740;28;20412;-67
2021/12/31 02:20:46;;;;;;;9.93;2.70;;;13.30;99.90;;;;;;5119603;28;20039;-66
2021/12/31 02:23:26;;;;;;;8.45;2.72;;;13.30;99.90;;;;;;5125225;28;20039;-66
2021/12/31 02:25:53;;;;;;;14.25;2.95;;;13.40;99.90;;;;;;5108380;28;20081;-66
2021/12/31 02:28:19;;;;;;;9.68;3.97;;;13.40;99.90;;;;;;5126334;28;20035;-66
2021/12/31 02:30:46;;;;;;;12.93;3.22;;;13.40;99.90;;;;;;5126418;28;20056;-66
2021/12/31 02:33:12;;;;;;;11.43;3.47;;;13.50;99.90;;;;;;5125489;28;20036;-66
2021/12/31 02:35:38;;;;;;;10.98;3.35;;;13.40;99.90;;;;;;5106573;28;20054;-66
2021/12/31 02:38:07;;;;;;;8.48;3.05;;;13.50;99.90;;;;;;5125476;28;20118;-66
2021/12/31 02:40:34;;;;;;;9.48;3.67;;;13.50;99.90;;;;;;5126195;28;20083;-66
2021/12/31 02:43:00;;;;;;;7.30;3.20;;;13.40;99.90;;;;;;5124931;28;20568;-66
2021/12/31 02:45:30;;;;;;;11.82;3.20;;;13.50;99.90;;;;;;5125158;28;20507;-66
2021/12/31 02:47:57;;;;;;;10.63;4.20;;;13.50;99.90;;;;;;5125794;28;20091;-66
2021/12/31 02:50:33;;;;;;;7.57;3.47;;;13.50;99.90;;;;;;5124941;28;20068;-66
2021/12/31 02:53:07;;;;;;;8.50;4.20;;;13.50;99.90;;;;;;5106441;28;20040;-66
2021/12/31 02:55:35;;;;;;;8.38;4.18;;;13.50;99.90;;;;;;5124618;28;20062;-66
2021/12/31 02:58:03;;;;;;;9.43;4.38;;;13.50;99.90;;;;;;5124974;28;20055;-66
2021/12/31 03:00:29;;;;;;;10.63;4.10;;;13.50;99.90;;;;;;5124408;28;20044;-66
2021/12/31 03:02:57;;;;;;;11.65;4.88;;;13.50;99.90;;;;;;5124805;28;20052;-66
2021/12/31 03:05:24;;;;;;;8.20;4.25;;;13.50;99.90;;;;;;5106409;28;20055;-66
2021/12/31 03:07:50;;;;;;;8.63;4.75;;;13.40;99.90;;;;;;5105646;28;20047;-66
2021/12/31 03:10:18;;;;;;;10.77;4.18;;;13.30;99.90;;;;;;5122801;28;20381;-66
2021/12/31 03:12:45;;;;;;;6.32;4.18;;;13.30;99.90;;;;;;5123246;28;20065;-66
2021/12/31 03:15:11;;;;;;;12.57;5.25;;;13.40;99.90;;;;;;5124511;28;20065;-66
2021/12/31 03:17:40;;;;;;;8.43;5.00;;;13.40;99.90;;;;;;5124487;28;20075;-66
2021/12/31 03:20:25;;;;;;;10.05;5.50;;;13.30;99.90;;;;;;5124783;28;20051;-66
2021/12/31 03:22:51;;;;;;;8.57;4.93;;;13.40;99.90;;;;;;5125397;28;20392;-66
2021/12/31 03:25:18;;;;;;;8.70;5.10;;;13.40;99.90;;;;;;5106017;28;20063;-66
2021/12/31 03:27:44;;;;;;;11.27;5.53;;;13.40;99.90;;;;;;5124510;28;20100;-66
2021/12/31 03:30:11;;;;;;;10.55;5.15;;;13.40;99.90;;;;;;5105748;28;20040;-66
2021/12/31 03:32:37;;;;;;;11.55;5.70;;;13.40;99.90;;;;;;5125111;28;20047;-66
2021/12/31 03:35:04;;;;;;;8.05;6.18;;;13.50;99.90;;;;;;5124864;28;20047;-66
2021/12/31 03:37:30;;;;;;;9.30;6.30;;;13.50;99.90;;;;;;5106218;28;20054;-66
2021/12/31 03:39:55;;;;;;;10.30;5.25;;;13.40;99.90;;;;;;5105612;28;20051;-66
2021/12/31 03:42:21;;;;;;;13.85;5.10;;;13.50;99.90;;;;;;5124287;28;20092;-66
2021/12/31 03:44:47;;;;;;;9.65;5.60;;;13.60;99.90;;;;;;5124041;28;20043;-66
2021/12/31 03:47:13;;;;;;;9.82;4.93;;;13.60;99.90;;;;;;5124278;28;20122;-66
2021/12/31 03:49:39;;;;;;;7.65;4.88;;;13.60;99.90;;;;;;5108300;28;20044;-66
2021/12/31 03:52:04;;;;;;;9.98;5.55;;;13.50;99.90;;;;;;5103545;28;20044;-66
2021/12/31 03:54:30;;;;;;;5.82;4.65;;;13.50;99.90;;;;;;5105977;28;20047;-66
2021/12/31 03:56:56;;;;;;;7.95;4.68;;;13.60;99.90;;;;;;5124974;28;20067;-66
2021/12/31 03:59:21;;;;;;;11.38;4.60;;;13.60;99.90;;;;;;5108940;28;20049;-66
2021/12/31 04:01:47;;;;;;;6.65;4.60;;;13.60;99.90;;;;;;5104746;28;20044;-66
2021/12/31 04:04:13;;;;;;;9.82;5.15;;;13.60;99.90;;;;;;5109477;28;20487;-66
2021/12/31 04:06:39;;;;;;;8.43;4.70;;;13.70;99.90;;;;;;5128384;28;20043;-66
2021/12/31 04:09:06;;;;;;;6.90;4.50;;;13.60;99.90;;;;;;5105780;28;20603;-66
2021/12/31 04:11:32;;;;;;;6.25;4.38;;;13.60;99.90;;;;;;5102351;28;20042;-66
2021/12/31 04:13:57;;;;;;;9.02;4.63;;;13.50;99.90;;;;;;5093990;28;20126;-66
2021/12/31 04:16:23;;;;;;;8.18;4.78;;;13.50;99.90;;;;;;5125572;28;20059;-66
2021/12/31 04:18:49;;;;;;;9.32;5.05;;;13.60;99.90;;;;;;5106552;28;20046;-66
2021/12/31 04:21:16;;;;;;;8.40;4.90;;;13.60;99.90;;;;;;5124685;28;20095;-66
2021/12/31 04:26:38;;;;;;;7.40;5.20;;;13.60;99.90;;;;;;5080202;28;20044;-67
2021/12/31 04:29:03;;;;;;;6.97;5.35;;;13.60;99.90;;;;;;5064088;28;20063;-66
2021/12/31 04:31:29;;;;;;;7.88;5.55;;;13.60;99.90;;;;;;5064977;28;20136;-66
2021/12/31 04:33:55;;;;;;;7.50;5.57;;;13.60;99.90;;;;;;5081841;28;20048;-66
2021/12/31 04:36:20;;;;;;;10.00;5.65;;;13.60;99.90;;;;;;5077261;28;20056;-66
2021/12/31 04:38:46;;;;;;;7.55;5.28;;;13.70;99.90;;;;;;5060964;28;20051;-66
2021/12/31 04:41:12;;;;;;;11.50;5.78;;;13.60;99.90;;;;;;5067574;28;20158;-66
2021/12/31 04:43:37;;;;;;;9.13;6.88;;;13.50;99.90;;;;;;5026015;28;20049;-66
2021/12/31 04:46:03;;;;;;;8.40;5.90;;;13.50;99.90;;;;;;5079737;28;20052;-66
2021/12/31 04:48:29;;;;;;;12.48;6.10;;;13.50;99.90;;;;;;5081576;28;20040;-66
2021/12/31 04:50:54;;;;;;;8.73;5.97;;;13.50;99.90;;;;;;5078078;28;20056;-66
2021/12/31 04:53:20;;;;;;;9.95;5.57;;;13.60;99.90;;;;;;5078422;28;20428;-66
2021/12/31 04:55:46;;;;;;;10.23;5.10;;;13.60;99.90;;;;;;5079908;28;20133;-66
2021/12/31 04:58:12;;;;;;;8.48;5.40;;;13.60;99.90;;;;;;5066821;28;20076;-66
2021/12/31 05:00:37;;;;;;;7.32;5.95;;;13.50;99.90;;;;;;5075933;28;20048;-66
2021/12/31 05:03:08;;;;;;;9.13;5.93;;;13.50;99.90;;;;;;5088615;28;20058;-66
2021/12/31 05:05:34;;;;;;;7.85;4.82;;;13.50;99.90;;;;;;5106329;28;20108;-66
2021/12/31 05:08:00;;;;;;;6.60;5.22;;;13.50;99.90;;;;;;5108691;28;20036;-66
2021/12/31 05:10:30;;;;;;;8.38;4.93;;;13.60;99.90;;;;;;5127262;28;20138;-66
2021/12/31 05:12:56;;;;;;;8.77;4.85;;;13.70;99.90;;;;;;5109192;28;20054;-67
2021/12/31 05:15:28;;;;;;;8.13;4.38;;;13.70;99.90;;;;;;5127695;28;20043;-66
2021/12/31 05:17:54;;;;;;;9.30;4.68;;;13.70;99.90;;;;;;5126183;27;20040;-66
2021/12/31 05:20:20;;;;;;;8.05;4.05;;;13.60;99.90;;;;;;5128062;28;20039;-66
2021/12/31 05:22:46;;;;;;;10.02;5.10;;;13.70;99.90;;;;;;5108507;28;20039;-66
2021/12/31 05:25:12;;;;;;;7.30;4.05;;;13.70;99.90;;;;;;5127497;28;20089;-66
2021/12/31 05:27:38;;;;;;;7.55;3.67;;;13.70;99.90;;;;;;5108957;28;20040;-66
2021/12/31 05:30:05;;;;;;;9.52;3.85;;;13.70;99.90;;;;;;5109669;28;20135;-66
2021/12/31 05:32:31;;;;;;;9.05;4.22;;;13.70;99.90;;;;;;5088370;28;20045;-66
2021/12/31 05:34:57;;;;;;;10.00;3.78;;;13.70;99.90;;;;;;5109339;28;20044;-66
2021/12/31 05:37:23;;;;;;;7.00;3.58;;;13.70;99.90;;;;;;5108615;28;20043;-67
2021/12/31 05:39:49;;;;;;;7.72;3.72;;;13.70;99.90;;;;;;5127214;28;20044;-66
2021/12/31 05:42:15;;;;;;;8.43;3.88;;;13.70;99.90;;;;;;5110718;28;20685;-66
2021/12/31 05:44:40;;;;;;;5.38;3.10;;;13.80;99.90;;;;;;5108144;28;20063;-66
2021/12/31 05:47:07;;;;;;;5.28;3.30;;;13.70;99.90;;;;;;5126795;28;20044;-66
2021/12/31 05:49:33;;;;;;;5.68;2.78;;;13.80;99.90;;;;;;5111691;28;20099;-66
2021/12/31 05:51:59;;;;;;;6.35;2.83;;;13.90;99.90;;;;;;5110306;28;20055;-66
2021/12/31 05:54:25;;;;;;;9.70;3.67;;;13.80;99.90;;;;;;5107992;28;20232;-66
2021/12/31 05:56:51;;;;;;;7.38;3.95;;;13.80;99.90;;;;;;5126612;28;20423;-66
2021/12/31 05:59:17;;;;;;;6.38;2.65;;;13.80;99.90;;;;;;5126631;27;20051;-67
2021/12/31 06:01:43;;;;;;;4.18;2.58;;;13.70;99.90;;;;;;5109046;28;20076;-66
2021/12/31 06:04:09;;;;;;;5.00;2.55;;;13.80;99.90;;;;;;5107917;28;20079;-66
2021/12/31 06:06:34;;;;;;;6.70;2.63;;;13.70;99.90;;;;;;5126467;28;20039;-67
2021/12/31 06:09:00;;;;;;;4.13;2.22;;;13.70;99.90;;;;;;5108553;28;20069;-66
2021/12/31 06:11:27;;;;;;;4.57;2.15;;;13.70;99.90;;;;;;5106754;28;20044;-66
2021/12/31 06:14:01;;;;;;;5.50;2.42;;;13.60;99.90;;;;;;5106941;28;20047;-67
2021/12/31 06:16:28;;;;;;;5.65;2.88;;;13.60;99.90;;;;;;5107963;28;20515;-66
2021/12/31 06:18:54;;;;;;;6.25;2.55;;;13.60;99.90;;;;;;5126452;28;20043;-66
2021/12/31 06:21:20;;;;;;;6.95;2.55;;;13.50;99.90;;;;;;5126539;28;20050;-66
2021/12/31 06:23:45;;;;;;;7.57;2.60;;;13.60;99.90;;;;;;5107473;28;20050;-66
2021/12/31 06:26:11;;;;;;;7.53;2.70;;;13.50;99.90;;;;;;5108793;28;20058;-66
2021/12/31 06:28:37;;;;;;;4.35;2.08;;;13.50;99.90;;;;;;5108284;28;20381;-67
2021/12/31 06:31:02;;;;;;;6.15;2.58;;;13.50;99.90;;;;;;5126482;28;20100;-66
2021/12/31 06:33:28;;;;;;;5.03;2.72;;;13.60;99.90;;;;;;5120029;28;20124;-66
2021/12/31 06:35:54;;;;;;;3.50;2.10;;;13.60;99.90;;;;;;5126067;28;20070;-66
2021/12/31 06:38:20;;;;;;;4.35;1.90;;;13.60;99.90;;;;;;5108096;28;20438;-66
2021/12/31 06:40:46;;;;;;;4.18;2.17;;;13.70;99.90;;;;;;5107968;28;20099;-67
2021/12/31 06:43:11;;;;;;;4.78;2.00;;;13.60;99.90;;;;;;5103511;28;20040;-67
2021/12/31 06:45:37;;;;;;;6.13;2.00;;;13.60;99.90;;;;;;5126185;28;20052;-66
2021/12/31 06:48:04;;;;;;;6.68;2.83;;;13.60;99.90;;;;;;5108216;28;20046;-67
2021/12/31 06:50:30;;;;;;;6.63;2.35;;;13.60;99.90;;;;;;5107438;28;20491;-66
2021/12/31 06:52:55;;;;;;;6.18;2.45;;;13.60;99.90;;;;;;5125751;28;20046;-66
2021/12/31 06:55:21;;;;;;;4.47;2.22;;;13.70;99.90;;;;;;5107779;28;20135;-67
2021/12/31 06:57:49;;;;;;;4.78;2.40;;;13.60;99.90;;;;;;5125487;28;20048;-66
2021/12/31 07:00:16;;;;;;;5.90;2.38;;;13.60;99.90;;;;;;5125457;28;20055;-66
2021/12/31 07:02:41;;;;;;;3.78;2.30;;;13.50;99.90;;;;;;5107462;28;20054;-66
2021/12/31 07:05:07;;;;;;;4.88;2.22;;;13.50;99.90;;;;;;5126084;28;20055;-66
2021/12/31 07:07:33;;;;;;;5.40;2.13;;;13.50;99.90;;;;;;5090804;28;20069;-66
2021/12/31 07:09:58;;;;;;;4.85;2.30;;;13.60;99.90;;;;;;5107417;28;20043;-66
2021/12/31 07:12:24;;;;;;;6.45;2.95;;;13.50;99.90;;;;;;5103424;28;20040;-66
2021/12/31 07:14:50;;;;;;;5.15;2.55;;;13.40;99.90;;;;;;5129877;27;20062;-66
2021/12/31 07:17:16;;;;;;;5.47;2.85;;;13.40;99.90;;;;;;5090205;28;20047;-66
2021/12/31 07:19:43;;;;;;;5.80;2.70;;;13.40;99.90;;;;;;5125489;28;20050;-66
2021/12/31 07:22:10;;;;;;;5.32;2.40;;;13.40;99.90;;;;;;5125297;28;20070;-66
2021/12/31 07:24:36;;;;;;;4.75;2.33;;;13.40;99.90;;;;;;5124972;28;20088;-66
2021/12/31 07:27:02;;;;;;;5.70;2.22;;;13.30;99.90;;;;;;5125381;28;20043;-67
2021/12/31 07:29:27;;;;;;;7.10;2.35;;;13.30;99.90;;;;;;5125778;28;20044;-66
2021/12/31 07:31:53;;;;;;;5.97;3.08;;;13.20;99.90;;;;;;5107877;28;20051;-66
2021/12/31 07:34:19;;;;;;;5.30;2.20;;;13.20;99.90;;;;;;5107172;28;20044;-66
2021/12/31 07:36:44;;;;;;;6.07;2.75;;;13.30;99.90;;;;;;5109595;28;20047;-66
2021/12/31 07:39:12;;;;;;;3.97;2.28;;;13.20;99.90;;;;;;5112016;28;20519;-66
2021/12/31 07:41:38;;;;;;;14.27;2.70;;;13.20;99.90;;;;;;5080468;28;20048;-66
2021/12/31 07:44:06;;;;;;;3.95;2.20;;;13.30;99.90;;;;;;5124710;28;20086;-66
2021/12/31 07:46:32;;;;;;;4.53;2.65;;;13.20;99.90;;;;;;5103723;28;20048;-66
2021/12/31 07:48:57;;;;;;;6.47;2.72;;;13.20;99.90;;;;;;5125387;28;20048;-66
2021/12/31 07:51:23;;;;;;;3.67;2.15;;;13.20;99.90;;;;;;5124591;28;20043;-66
2021/12/31 07:53:49;;;;;;;6.88;2.65;;;13.20;99.90;;;;;;5129988;28;20070;-66
2021/12/31 07:56:18;;;;;;;7.55;2.55;;;13.20;99.90;;;;;;5109376;28;20047;-66
2021/12/31 07:58:46;;;;;;;4.55;2.25;;;13.20;99.90;;;;;;5107702;28;20113;-66
2021/12/31 08:01:12;;;;;;;5.32;2.17;;;13.10;99.90;;;;;;5129283;28;20052;-66
2021/12/31 08:03:37;;;;;;;4.57;2.30;;;13.10;99.90;;;;;;5120581;27;20074;-66
2021/12/31 08:06:03;;;;;;;3.78;2.67;;;13.10;99.90;;;;;;5128256;28;20067;-67
2021/12/31 08:08:29;;;;;;;5.57;2.33;;;13.10;99.90;;;;;;5128475;28;20047;-67
2021/12/31 08:10:54;;;;;;;3.72;2.55;;;13.00;99.90;;;;;;5074297;28;20105;-67
2021/12/31 08:13:21;;;;;;;5.22;2.53;;;13.10;99.90;;;;;;5108977;28;20539;-67
2021/12/31 08:15:47;;;;;;;4.28;2.42;;;13.10;99.90;;;;;;5101065;28;20047;-67
2021/12/31 08:18:12;;;;;;;5.10;2.58;;;13.10;99.90;;;;;;5099323;28;20128;-68
2021/12/31 08:20:38;;;;;;;5.50;2.67;;;13.10;99.90;;;;;;5107548;27;20307;-67
2021/12/31 08:23:09;;;;;;;5.65;2.47;;;13.00;99.90;;;;;;5104029;27;20047;-67
2021/12/31 08:25:36;;;;;;;5.05;2.40;;;13.10;99.90;;;;;;5132977;27;20045;-66
2021/12/31 08:28:03;;;;;;;6.75;2.95;;;13.10;99.90;;;;;;5130886;27;20066;-66
2021/12/31 08:30:28;;;;;;;3.63;2.22;;;13.20;99.90;;;;;;5091576;28;20051;-67
2021/12/31 08:32:54;;;;;;;3.53;2.50;;;13.20;99.90;;;;;;5100847;27;20088;-66
2021/12/31 08:35:20;;;;;;;4.40;2.33;;;13.30;99.90;;;;;;5106078;27;20051;-67
2021/12/31 08:37:45;;;;;;;4.22;2.30;;;13.30;99.90;;;;;;5134784;27;20103;-66
2021/12/31 08:40:12;;;;;;;4.32;2.33;;;13.30;99.90;;;;;;5115331;27;20109;-65
2021/12/31 08:42:39;;;;;;;5.30;3.00;;;13.30;99.90;;;;;;5111565;27;20047;-66
2021/12/31 08:45:06;;;;;;;3.75;2.15;;;13.30;99.90;;;;;;5113488;27;20077;-66
2021/12/31 08:47:31;;;;;;;6.38;2.65;;;13.20;99.90;;;;;;5108740;27;20057;-66
2021/12/31 08:49:57;;;;;;;5.63;2.53;;;13.30;99.90;;;;;;5099959;28;20047;-65
2021/12/31 08:52:23;;;;;;;4.05;2.25;;;13.30;99.90;;;;;;5104515;27;20046;-68
2021/12/31 08:54:48;;;;;;;5.57;2.30;;;13.30;99.90;;;;;;5095202;28;20052;-68
2021/12/31 08:57:15;;;;;;;4.55;2.35;;;13.40;99.90;;;;;;5101037;28;20073;-70
2021/12/31 08:59:40;;;;;;;4.95;2.40;;;13.30;99.90;;;;;;5073911;28;20087;-70
2021/12/31 09:02:06;;;;;;;3.22;2.05;;;13.30;99.90;;;;;;5090828;27;20047;-68
2021/12/31 09:04:32;;;;;;;8.88;2.95;;;13.30;99.90;;;;;;5097230;28;20044;-68
2021/12/31 09:06:58;;;;;;;5.38;2.70;;;13.30;99.90;;;;;;5090440;28;20040;-68
2021/12/31 09:09:24;;;;;;;5.47;2.42;;;13.30;99.90;;;;;;5101185;28;20054;-69
2021/12/31 09:11:50;;;;;;;4.03;2.20;;;13.20;99.90;;;;;;5051883;28;20547;-69
2021/12/31 09:14:16;;;;;;;4.63;2.45;;;13.30;99.90;;;;;;5119292;28;20043;-69
2021/12/31 09:16:45;;;;;;;8.50;2.42;;;13.30;99.90;;;;;;5091768;27;20216;-69
2021/12/31 09:19:12;;;;;;;5.32;2.30;;;13.30;99.90;;;;;;5101394;28;20051;-68
2021/12/31 09:21:38;;;;;;;4.90;2.40;;;13.30;99.90;;;;;;5073158;28;20056;-66
2021/12/31 09:24:04;;;;;;;7.63;4.97;;;13.30;99.90;;;;;;5102959;28;20051;-68
2021/12/31 09:26:30;;;;;;;4.90;2.30;;;13.30;99.90;;;;;;5092343;28;20052;-66
2021/12/31 09:28:56;;;;;;;4.95;2.53;;;13.20;99.90;;;;;;5121166;28;20074;-67
2021/12/31 09:31:21;;;;;;;5.18;2.78;;;13.30;99.90;;;;;;5095646;28;20052;-66
2021/12/31 09:33:47;;;;;;;5.22;3.75;;;13.20;99.90;;;;;;5107809;27;20066;-65
2021/12/31 09:36:14;;;;;;;6.20;2.70;;;13.20;99.90;;;;;;5110950;27;20500;-63
2021/12/31 09:38:39;;;;;;;4.88;2.85;;;13.20;99.90;;;;;;5108633;28;20051;-63
2021/12/31 09:41:05;;;;;;;4.10;2.50;;;13.10;99.90;;;;;;5094563;28;20074;-64
2021/12/31 09:43:31;;;;;;;7.28;3.47;;;13.10;99.90;;;;;;5104259;28;20149;-64
2021/12/31 09:45:57;;;;;;;4.72;2.30;;;13.20;99.90;;;;;;5097706;28;20131;-64
2021/12/31 09:48:24;;;;;;;4.45;2.30;;;13.30;99.90;;;;;;5114261;28;20130;-64
2021/12/31 09:50:56;;;;;;;4.78;2.92;;;13.30;99.90;;;;;;5110392;27;20485;-66
2021/12/31 09:53:25;;;;;;;7.63;2.72;;;13.30;99.90;;;;;;5113933;27;20067;-67
2021/12/31 09:55:53;;;;;;;5.75;2.35;;;13.30;99.90;;;;;;5114148;27;20115;-65
2021/12/31 09:58:21;;;;;;;5.55;3.00;;;13.30;99.90;;;;;;5102869;28;20062;-63
2021/12/31 10:00:51;;;;;;;4.97;2.38;;;13.20;99.90;;;;;;5097823;28;20044;-64
2021/12/31 10:03:22;;;;;;;5.38;2.53;;;13.20;99.90;;;;;;5093610;28;20035;-64
2021/12/31 10:05:52;;;;;;;5.88;2.80;;;13.20;99.90;;;;;;5083644;28;20044;-64
2021/12/31 10:08:30;;;;;;;7.45;3.28;;;13.20;99.90;;;;;;5094035;28;20075;-64
2021/12/31 10:11:03;;;;;;;3.75;2.85;;;13.20;99.90;;;;;;5064121;28;20081;-64
2021/12/31 10:13:29;;;;;;;4.88;2.92;;;13.30;99.90;;;;;;5113834;27;20059;-63
2021/12/31 10:15:56;;;;;;;4.85;2.47;;;13.30;99.90;;;;;;5112186;27;20111;-65
2021/12/31 10:18:37;;;;;;;5.80;2.75;;;13.20;99.90;;;;;;5108215;27;20035;-64
2021/12/31 10:21:05;;;;;;;4.28;3.05;;;13.10;99.90;;;;;;5081996;28;20084;-63
2021/12/31 10:23:31;;;;;;;6.13;3.10;;;13.20;99.90;;;;;;5088457;28;20040;-63
2021/12/31 10:26:14;;;;;;;9.50;4.03;;;13.20;99.90;;;;;;5093016;28;20048;-64
2021/12/31 10:28:55;;;;;;;6.10;3.30;;;13.10;99.90;;;;;;5102833;28;20142;-64
2021/12/31 10:31:21;;;;;;;8.25;4.28;;;13.10;99.90;;;;;;5074894;28;20078;-64
2021/12/31 10:33:48;;;;;;;5.68;4.57;;;13.10;99.90;;;;;;5101909;28;20024;-63
2021/12/31 10:36:32;;;;;;;11.13;8.00;;;13.10;99.90;;;;;;5094485;28;20048;-64
2021/12/31 10:39:15;;;;;;;11.43;6.90;;;13.10;99.90;;;;;;5084053;28;20075;-63
2021/12/31 10:41:41;;;;;;;8.05;5.82;;;13.10;99.90;;;;;;5068405;28;20149;-64
2021/12/31 10:44:07;;;;;;;10.60;6.88;;;13.10;99.90;;;;;;5075432;28;20040;-63
2021/12/31 10:46:33;;;;;;;9.43;6.90;;;13.10;99.90;;;;;;5063014;28;20491;-64
2021/12/31 10:49:06;;;;;;;9.63;6.53;;;13.10;99.90;;;;;;5094935;28;20554;-63
2021/12/31 10:51:38;;;;;;;8.85;5.95;;;13.10;99.90;;;;;;5092807;27;20248;-64
2021/12/31 10:54:36;;;;;;;9.32;6.72;;;13.10;99.90;;;;;;5104571;28;20559;-64
2021/12/31 10:57:02;;;;;;;9.60;6.63;;;13.10;99.90;;;;;;5107368;27;20043;-64
2021/12/31 10:59:33;;;;;;;8.88;6.22;;;13.10;99.90;;;;;;5104140;28;20136;-64
2021/12/31 11:01:59;;;;;;;6.80;5.25;;;13.10;99.90;;;;;;5104003;27;20081;-64
2021/12/31 11:04:28;;;;;;;9.80;5.63;;;13.10;99.90;;;;;;5087365;28;20162;-64
2021/12/31 11:06:55;;;;;;;8.98;5.30;;;13.30;99.90;;;;;;5105530;27;20052;-63
2021/12/31 11:09:24;;;;;;;8.30;4.50;;;13.10;99.90;;;;;;5110499;28;20047;-62
2021/12/31 11:11:51;;;;;;;8.57;4.57;;;13.00;99.90;;;;;;5089829;28;20098;-62
2021/12/31 11:14:17;;;;;;;8.70;4.40;;;13.00;99.90;;;;;;5113087;28;20054;-61
2021/12/31 11:16:43;;;;;;;8.75;4.88;;;13.10;99.90;;;;;;5075481;28;20068;-64
2021/12/31 11:19:11;;;;;;;7.57;4.22;;;13.00;99.90;;;;;;5098293;28;20048;-64
2021/12/31 11:21:37;;;;;;;10.25;4.97;;;13.00;99.90;;;;;;5095752;28;20134;-64
2021/12/31 11:24:32;;;;;;;9.30;5.25;;;12.90;99.90;;;;;;5087874;28;20069;-64
2021/12/31 11:26:58;;;;;;;7.18;4.18;;;12.70;99.90;;;;;;5088318;28;20048;-64
2021/12/31 11:29:34;;;;;;;9.05;4.60;;;12.70;99.90;;;;;;5080529;28;20039;-64
2021/12/31 11:32:00;;;;;;;10.82;5.00;;;12.70;99.90;;;;;;5075172;28;20068;-63
2021/12/31 11:34:28;;;;;;;10.13;4.90;;;12.60;99.90;;;;;;5061443;28;20047;-63
2021/12/31 11:36:55;;;;;;;7.75;4.75;;;12.60;99.90;;;;;;5072254;28;20111;-64
2021/12/31 11:39:32;;;;;;;7.53;5.00;;;12.60;99.90;;;;;;5086476;28;20044;-64
2021/12/31 11:42:04;;;;;;;6.80;4.43;;;12.60;99.90;;;;;;5078597;28;20575;-64
2021/12/31 11:44:30;;;;;;;9.70;5.32;;;12.60;99.90;;;;;;5082941;28;20153;-64
2021/12/31 11:47:27;;;;;;;10.68;4.50;;;12.60;99.90;;;;;;5070806;28;20236;-66
2021/12/31 11:50:22;;;;;;;8.02;4.88;;;12.60;99.90;;;;;;5095851;28;20108;-65
2021/12/31 11:53:03;;;;;;;6.60;5.05;;;12.60;99.90;;;;;;5068933;28;20044;-65
2021/12/31 11:55:42;;;;;;;6.82;5.22;;;12.50;99.90;;;;;;5070446;28;20052;-65
2021/12/31 11:58:38;;;;;;;10.20;5.35;;;12.50;99.90;;;;;;5110477;28;20056;-65
2021/12/31 12:01:34;;;;;;;9.40;5.07;;;12.50;99.90;;;;;;5076353;28;20527;-65
2021/12/31 12:04:24;;;;;;;8.80;5.25;;;12.60;99.90;;;;;;5092893;28;20043;-65
2021/12/31 12:07:00;;;;;;;11.20;5.15;;;12.50;99.90;;;;;;5071681;28;20110;-65
2021/12/31 12:09:38;;;;;;;8.13;5.13;;;12.60;99.90;;;;;;5091035;28;20070;-64
2021/12/31 12:12:08;;;;;;;7.70;4.55;;;12.60;99.90;;;;;;5067700;28;20044;-64
2021/12/31 12:14:45;;;;;;;9.85;4.95;;;12.50;99.90;;;;;;5117624;28;20044;-65
2021/12/31 12:17:16;;;;;;;6.43;5.05;;;12.50;99.90;;;;;;5088310;28;20043;-65
2021/12/31 12:19:49;;;;;;;9.77;5.18;;;12.50;99.90;;;;;;5098775;28;20051;-65
2021/12/31 12:22:27;;;;;;;9.43;5.00;;;12.50;99.90;;;;;;5070127;28;20255;-65
2021/12/31 12:24:58;;;;;;;11.48;5.93;;;12.50;99.90;;;;;;5077172;28;20593;-65
2021/12/31 12:27:25;;;;;;;15.10;6.00;;;12.40;99.90;;;;;;5065939;28;20052;-64
2021/12/31 12:29:52;;;;;;;11.43;6.15;;;12.20;99.90;;;;;;5076042;28;20539;-63
2021/12/31 12:32:30;;;;;;;14.68;6.40;;;12.20;99.90;;;;;;5067626;28;20040;-64
2021/12/31 12:34:56;;;;;;;12.57;6.45;;;12.00;99.90;;;;;;5088390;28;20056;-63
2021/12/31 12:37:31;;;;;;;10.77;6.13;;;12.00;99.90;;;;;;5049873;28;20090;-65
2021/12/31 12:40:02;;;;;;;10.60;6.45;;;11.90;99.90;;;;;;5077730;28;20044;-63
2021/12/31 12:42:28;;;;;;;13.15;7.35;;;11.80;99.90;;;;;;5069188;28;20276;-63
2021/12/31 12:45:01;;;;;;;15.63;8.10;;;11.80;99.90;;;;;;5078386;28;20291;-64
2021/12/31 12:47:27;;;;;;;12.07;7.78;;;11.70;99.90;;;;;;5092397;28;20399;-64
2021/12/31 12:49:57;;;;;;;16.73;8.23;;;11.80;99.90;;;;;;5107098;28;20065;-68
2021/12/31 12:52:22;;;;;;;17.60;8.57;;;11.70;99.90;;;;;;5077017;28;20109;-68
2021/12/31 12:54:49;;;;;;;22.17;9.70;;;11.70;99.90;;;;;;5087065;28;20495;-68
2021/12/31 12:57:25;;;;;;;15.95;9.57;;;11.70;99.90;;;;;;5093899;28;20519;-68
2021/12/31 12:59:51;;;;;;;18.08;9.30;;;11.70;99.90;;;;;;5088076;28;20060;-68